RYR464 LOWI-LOWW
Flight info
| Callsign | RYR464 |
|---|---|
| Flight time | 0h 45m |
| Altitude | 29000 |
| Route | RTT DCT NEMAL NEMAL2W |
| Aircraft | B738/M-SDE2E3FGHIRWXY/LB1 |
Departure
| Time | 2026-04-22 19:40 |
|---|---|
| Airport | Innsbruck Airport (LOWI) |
Arrival
| Time | 2026-04-22 20:25 |
|---|---|
| Airport | Vienna International Airport (LOWW) |
| Time | Latitude | Longitude | Altitude | Speed | Heading |
|---|---|---|---|---|---|
| 2026-04-22 19:17 | 47.25838 | 11.35176 | 1900 ft | 0 kts | 171° |
| 2026-04-22 19:28 | 47.25857 | 11.35172 | 1890 ft | 3 kts | 177° |
| 2026-04-22 19:28 | 47.25876 | 11.35173 | 1895 ft | 3 kts | 196° |
| 2026-04-22 19:28 | 47.25891 | 11.35184 | 1897 ft | 3 kts | 241° |
| 2026-04-22 19:28 | 47.25894 | 11.35195 | 1896 ft | 1 kts | 261° |
| 2026-04-22 19:30 | 47.25894 | 11.35189 | 1896 ft | 2 kts | 261° |
| 2026-04-22 19:31 | 47.25887 | 11.35120 | 1916 ft | 12 kts | 261° |
| 2026-04-22 19:31 | 47.25869 | 11.34969 | 1906 ft | 18 kts | 260° |
| 2026-04-22 19:31 | 47.25847 | 11.34775 | 1896 ft | 21 kts | 261° |
| 2026-04-22 19:31 | 47.25825 | 11.34556 | 1910 ft | 21 kts | 261° |
| 2026-04-22 19:32 | 47.25802 | 11.34343 | 1903 ft | 21 kts | 260° |
| 2026-04-22 19:32 | 47.25778 | 11.34136 | 1899 ft | 20 kts | 260° |
| 2026-04-22 19:32 | 47.25783 | 11.33940 | 1910 ft | 18 kts | 294° |
| 2026-04-22 19:32 | 47.25811 | 11.33874 | 1909 ft | 0 kts | 306° |
| 2026-04-22 19:38 | 47.25816 | 11.33863 | 1907 ft | 4 kts | 306° |
| 2026-04-22 19:38 | 47.25844 | 11.33808 | 1916 ft | 10 kts | 306° |
| 2026-04-22 19:38 | 47.25892 | 11.33712 | 1917 ft | 12 kts | 306° |
| 2026-04-22 19:39 | 47.25926 | 11.33656 | 1917 ft | 4 kts | 345° |
| 2026-04-22 19:39 | 47.25947 | 11.33714 | 1916 ft | 22 kts | 82° |
| 2026-04-22 19:39 | 47.26014 | 11.34338 | 1911 ft | 100 kts | 81° |
| 2026-04-22 19:39 | 47.26162 | 11.35661 | 2042 ft | 149 kts | 81° |
| 2026-04-22 19:40 | 47.26295 | 11.37187 | 2794 ft | 158 kts | 78° |
| 2026-04-22 19:40 | 47.26519 | 11.38827 | 3610 ft | 162 kts | 77° |
| 2026-04-22 19:40 | 47.26752 | 11.40472 | 4466 ft | 163 kts | 78° |
| 2026-04-22 19:40 | 47.26975 | 11.42089 | 5330 ft | 164 kts | 79° |
| 2026-04-22 19:41 | 47.27215 | 11.43861 | 6003 ft | 184 kts | 77° |
| 2026-04-22 19:41 | 47.27534 | 11.45682 | 6856 ft | 188 kts | 74° |
| 2026-04-22 19:41 | 47.27892 | 11.47545 | 7651 ft | 189 kts | 73° |
| 2026-04-22 19:41 | 47.28253 | 11.49417 | 8434 ft | 191 kts | 73° |
| 2026-04-22 19:42 | 47.28617 | 11.51312 | 9123 ft | 194 kts | 73° |
| 2026-04-22 19:42 | 47.28984 | 11.53234 | 9808 ft | 195 kts | 72° |
| 2026-04-22 19:42 | 47.29352 | 11.55169 | 10452 ft | 197 kts | 72° |
| 2026-04-22 19:42 | 47.29720 | 11.57118 | 11081 ft | 197 kts | 72° |
| 2026-04-22 19:43 | 47.30453 | 11.61012 | 12362 ft | 198 kts | 71° |
| 2026-04-22 19:43 | 47.30821 | 11.62974 | 12999 ft | 199 kts | 71° |
| 2026-04-22 19:43 | 47.31232 | 11.64921 | 13610 ft | 199 kts | 62° |
| 2026-04-22 19:44 | 47.31623 | 11.66880 | 14195 ft | 206 kts | 87° |
| 2026-04-22 19:44 | 47.31450 | 11.68993 | 14753 ft | 210 kts | 92° |
| 2026-04-22 19:44 | 47.31259 | 11.71147 | 15240 ft | 213 kts | 91° |
| 2026-04-22 19:44 | 47.31091 | 11.73312 | 15794 ft | 212 kts | 88° |
| 2026-04-22 19:45 | 47.31036 | 11.75515 | 16143 ft | 223 kts | 89° |
| 2026-04-22 19:45 | 47.30908 | 11.77869 | 16275 ft | 243 kts | 90° |
| 2026-04-22 19:45 | 47.30746 | 11.80460 | 16420 ft | 265 kts | 91° |
| 2026-04-22 19:45 | 47.30568 | 11.83275 | 16579 ft | 289 kts | 91° |
| 2026-04-22 19:46 | 47.30374 | 11.86351 | 16779 ft | 314 kts | 91° |
| 2026-04-22 19:46 | 47.30164 | 11.89685 | 16959 ft | 338 kts | 91° |
| 2026-04-22 19:46 | 47.29941 | 11.93245 | 17152 ft | 360 kts | 92° |
| 2026-04-22 19:46 | 47.29705 | 11.96995 | 17586 ft | 373 kts | 92° |
| 2026-04-22 19:47 | 47.29462 | 12.00828 | 18268 ft | 379 kts | 92° |
| 2026-04-22 19:47 | 47.29215 | 12.04704 | 18994 ft | 381 kts | 92° |
| 2026-04-22 19:47 | 47.29051 | 12.07283 | 19442 ft | 383 kts | 92° |
| 2026-04-22 19:47 | 47.28718 | 12.12545 | 20270 ft | 389 kts | 92° |
| 2026-04-22 19:48 | 47.28464 | 12.16531 | 20873 ft | 393 kts | 92° |
| 2026-04-22 19:48 | 47.28209 | 12.20559 | 21491 ft | 396 kts | 92° |
| 2026-04-22 19:48 | 47.27951 | 12.24618 | 22097 ft | 400 kts | 92° |
| 2026-04-22 19:48 | 47.27689 | 12.28714 | 22677 ft | 403 kts | 92° |
| 2026-04-22 19:49 | 47.27514 | 12.31444 | 23058 ft | 406 kts | 92° |
| 2026-04-22 19:49 | 47.27246 | 12.35599 | 23639 ft | 409 kts | 92° |
| 2026-04-22 19:49 | 47.26885 | 12.41152 | 24339 ft | 413 kts | 92° |
| 2026-04-22 19:49 | 47.26609 | 12.45376 | 24823 ft | 416 kts | 92° |
| 2026-04-22 19:50 | 47.26329 | 12.49631 | 25298 ft | 419 kts | 92° |
| 2026-04-22 19:50 | 47.26045 | 12.53918 | 25768 ft | 422 kts | 92° |
| 2026-04-22 19:50 | 47.25851 | 12.56831 | 26069 ft | 424 kts | 92° |
| 2026-04-22 19:50 | 47.25565 | 12.61117 | 26506 ft | 427 kts | 92° |
| 2026-04-22 19:51 | 47.25272 | 12.65487 | 26940 ft | 431 kts | 92° |
| 2026-04-22 19:51 | 47.24975 | 12.69874 | 27492 ft | 430 kts | 92° |
| 2026-04-22 19:51 | 47.24676 | 12.74244 | 28135 ft | 428 kts | 92° |
| 2026-04-22 19:51 | 47.24377 | 12.78598 | 28766 ft | 426 kts | 92° |
| 2026-04-22 19:52 | 47.24079 | 12.82940 | 29278 ft | 428 kts | 93° |
| 2026-04-22 19:52 | 47.23777 | 12.87306 | 29256 ft | 429 kts | 93° |
| 2026-04-22 19:52 | 47.23171 | 12.95994 | 29292 ft | 426 kts | 93° |
| 2026-04-22 19:53 | 47.22561 | 13.04653 | 29292 ft | 425 kts | 93° |
| 2026-04-22 19:53 | 47.21945 | 13.13294 | 29282 ft | 424 kts | 93° |
| 2026-04-22 19:54 | 47.21328 | 13.21871 | 29299 ft | 423 kts | 93° |
| 2026-04-22 19:54 | 47.20701 | 13.30478 | 29290 ft | 423 kts | 93° |
| 2026-04-22 19:55 | 47.20065 | 13.39088 | 29271 ft | 423 kts | 93° |
| 2026-04-22 19:55 | 47.19429 | 13.47666 | 29279 ft | 421 kts | 93° |
| 2026-04-22 19:56 | 47.18788 | 13.56224 | 29285 ft | 421 kts | 93° |
| 2026-04-22 19:56 | 47.18145 | 13.64710 | 29269 ft | 420 kts | 94° |
| 2026-04-22 19:57 | 47.17493 | 13.73223 | 29270 ft | 418 kts | 94° |
| 2026-04-22 19:57 | 47.16837 | 13.81701 | 29282 ft | 417 kts | 94° |
| 2026-04-22 19:58 | 47.16178 | 13.90147 | 29279 ft | 415 kts | 94° |
| 2026-04-22 19:58 | 47.15513 | 13.98576 | 29282 ft | 414 kts | 94° |
| 2026-04-22 20:00 | 47.14970 | 14.27696 | 29269 ft | 405 kts | 68° |
| 2026-04-22 20:01 | 47.17144 | 14.35336 | 29267 ft | 405 kts | 65° |
| 2026-04-22 20:01 | 47.19342 | 14.42951 | 29265 ft | 404 kts | 66° |
| 2026-04-22 20:02 | 47.21513 | 14.50577 | 29241 ft | 404 kts | 66° |
| 2026-04-22 20:02 | 47.23677 | 14.58195 | 29230 ft | 403 kts | 66° |
| 2026-04-22 20:03 | 47.25836 | 14.65811 | 29234 ft | 402 kts | 66° |
| 2026-04-22 20:03 | 47.27968 | 14.73348 | 29213 ft | 400 kts | 67° |
| 2026-04-22 20:03 | 47.29027 | 14.77100 | 28899 ft | 393 kts | 67° |
| 2026-04-22 20:04 | 47.30067 | 14.80794 | 28622 ft | 388 kts | 66° |
| 2026-04-22 20:04 | 47.31093 | 14.84441 | 28352 ft | 384 kts | 66° |
| 2026-04-22 20:04 | 47.32112 | 14.88068 | 28075 ft | 383 kts | 67° |
| 2026-04-22 20:04 | 47.33128 | 14.91690 | 27813 ft | 381 kts | 66° |
| 2026-04-22 20:05 | 47.34143 | 14.95310 | 27554 ft | 380 kts | 66° |
| 2026-04-22 20:05 | 47.35150 | 14.98909 | 27284 ft | 379 kts | 66° |
| 2026-04-22 20:05 | 47.36153 | 15.02500 | 27020 ft | 378 kts | 67° |
| 2026-04-22 20:05 | 47.37152 | 15.06083 | 26764 ft | 377 kts | 66° |
| 2026-04-22 20:06 | 47.38145 | 15.09651 | 26505 ft | 375 kts | 66° |
| 2026-04-22 20:06 | 47.39137 | 15.13218 | 26251 ft | 374 kts | 66° |
| 2026-04-22 20:06 | 47.40107 | 15.16715 | 26000 ft | 372 kts | 66° |
| 2026-04-22 20:06 | 47.41085 | 15.20242 | 25748 ft | 370 kts | 66° |
| 2026-04-22 20:07 | 47.42056 | 15.23757 | 25493 ft | 368 kts | 66° |
| 2026-04-22 20:07 | 47.43021 | 15.27251 | 25250 ft | 366 kts | 66° |
| 2026-04-22 20:07 | 47.44081 | 15.30649 | 24754 ft | 363 kts | 62° |
| 2026-04-22 20:07 | 47.45244 | 15.33944 | 24295 ft | 360 kts | 61° |
| 2026-04-22 20:08 | 47.46430 | 15.37179 | 23831 ft | 357 kts | 60° |
| 2026-04-22 20:08 | 47.47613 | 15.40395 | 23267 ft | 354 kts | 60° |
| 2026-04-22 20:08 | 47.48777 | 15.43584 | 22810 ft | 350 kts | 60° |
| 2026-04-22 20:08 | 47.49920 | 15.46743 | 22351 ft | 346 kts | 60° |
| 2026-04-22 20:09 | 47.51046 | 15.49877 | 21895 ft | 343 kts | 60° |
| 2026-04-22 20:09 | 47.52153 | 15.52976 | 21432 ft | 339 kts | 61° |
| 2026-04-22 20:09 | 47.53247 | 15.56051 | 20987 ft | 337 kts | 61° |
| 2026-04-22 20:09 | 47.54318 | 15.59070 | 20552 ft | 334 kts | 60° |
| 2026-04-22 20:10 | 47.55394 | 15.62107 | 20121 ft | 332 kts | 61° |
| 2026-04-22 20:10 | 47.56459 | 15.65122 | 19679 ft | 330 kts | 60° |
| 2026-04-22 20:10 | 47.57518 | 15.68124 | 19261 ft | 328 kts | 60° |
| 2026-04-22 20:10 | 47.58570 | 15.71109 | 18832 ft | 326 kts | 60° |
| 2026-04-22 20:11 | 47.59616 | 15.74078 | 18399 ft | 324 kts | 60° |
| 2026-04-22 20:11 | 47.60656 | 15.77036 | 17922 ft | 323 kts | 60° |
| 2026-04-22 20:11 | 47.61686 | 15.79969 | 17492 ft | 319 kts | 60° |
| 2026-04-22 20:11 | 47.62707 | 15.82880 | 17074 ft | 317 kts | 60° |
| 2026-04-22 20:12 | 47.63722 | 15.85776 | 16643 ft | 316 kts | 60° |
| 2026-04-22 20:12 | 47.64733 | 15.88665 | 16218 ft | 314 kts | 60° |
| 2026-04-22 20:12 | 47.65397 | 15.90565 | 15975 ft | 312 kts | 60° |
| 2026-04-22 20:12 | 47.66731 | 15.94383 | 15399 ft | 311 kts | 60° |
| 2026-04-22 20:13 | 47.67712 | 15.97193 | 14993 ft | 309 kts | 60° |
| 2026-04-22 20:13 | 47.68698 | 16.00022 | 14585 ft | 308 kts | 60° |
| 2026-04-22 20:13 | 47.69680 | 16.02843 | 14161 ft | 307 kts | 60° |
| 2026-04-22 20:13 | 47.70666 | 16.05679 | 13566 ft | 310 kts | 60° |
| 2026-04-22 20:14 | 47.71656 | 16.08527 | 13018 ft | 311 kts | 59° |
| 2026-04-22 20:14 | 47.72650 | 16.11389 | 12468 ft | 312 kts | 60° |
| 2026-04-22 20:14 | 47.73641 | 16.14250 | 11998 ft | 311 kts | 59° |
| 2026-04-22 20:14 | 47.74629 | 16.17105 | 11554 ft | 309 kts | 59° |
| 2026-04-22 20:15 | 47.75610 | 16.19942 | 11101 ft | 308 kts | 59° |
| 2026-04-22 20:15 | 47.76587 | 16.22771 | 10657 ft | 307 kts | 59° |
| 2026-04-22 20:15 | 47.77563 | 16.25598 | 10201 ft | 306 kts | 59° |
| 2026-04-22 20:15 | 47.78531 | 16.28407 | 9751 ft | 305 kts | 59° |
| 2026-04-22 20:16 | 47.79495 | 16.31207 | 9310 ft | 303 kts | 59° |
| 2026-04-22 20:16 | 47.80452 | 16.33989 | 8882 ft | 301 kts | 59° |
| 2026-04-22 20:16 | 47.81387 | 16.36717 | 8745 ft | 290 kts | 59° |
| 2026-04-22 20:16 | 47.82298 | 16.39371 | 8376 ft | 288 kts | 59° |
| 2026-04-22 20:17 | 47.83209 | 16.42025 | 7956 ft | 287 kts | 59° |
| 2026-04-22 20:17 | 47.84114 | 16.44666 | 7578 ft | 286 kts | 59° |
| 2026-04-22 20:17 | 47.85015 | 16.47297 | 7182 ft | 285 kts | 59° |
| 2026-04-22 20:17 | 47.85910 | 16.49916 | 6843 ft | 283 kts | 59° |
| 2026-04-22 20:18 | 47.86773 | 16.52447 | 6733 ft | 272 kts | 59° |
| 2026-04-22 20:18 | 47.87699 | 16.54822 | 6632 ft | 258 kts | 49° |
| 2026-04-22 20:18 | 47.88807 | 16.56829 | 6475 ft | 245 kts | 46° |
| 2026-04-22 20:18 | 47.89921 | 16.58745 | 5872 ft | 248 kts | 45° |
| 2026-04-22 20:19 | 47.91069 | 16.60696 | 5244 ft | 251 kts | 45° |
| 2026-04-22 20:19 | 47.92218 | 16.62652 | 4901 ft | 248 kts | 45° |
| 2026-04-22 20:19 | 47.93478 | 16.64302 | 4743 ft | 236 kts | 32° |
| 2026-04-22 20:19 | 47.94798 | 16.65629 | 4587 ft | 221 kts | 31° |
| 2026-04-22 20:20 | 47.96051 | 16.66863 | 4324 ft | 213 kts | 30° |
| 2026-04-22 20:20 | 47.97283 | 16.68076 | 3965 ft | 212 kts | 30° |
| 2026-04-22 20:20 | 47.98509 | 16.69282 | 3623 ft | 210 kts | 30° |
| 2026-04-22 20:20 | 47.99728 | 16.70482 | 3259 ft | 211 kts | 30° |
| 2026-04-22 20:21 | 48.00938 | 16.71675 | 3167 ft | 202 kts | 30° |
| 2026-04-22 20:21 | 48.02072 | 16.72802 | 3069 ft | 190 kts | 30° |
| 2026-04-22 20:21 | 48.03264 | 16.73515 | 2713 ft | 185 kts | 357° |
| 2026-04-22 20:21 | 48.04421 | 16.72724 | 2685 ft | 188 kts | 325° |
| 2026-04-22 20:22 | 48.05424 | 16.71516 | 2635 ft | 180 kts | 325° |
| 2026-04-22 20:22 | 48.06359 | 16.70383 | 2554 ft | 170 kts | 324° |
| 2026-04-22 20:22 | 48.07068 | 16.68985 | 2335 ft | 168 kts | 305° |
| 2026-04-22 20:22 | 48.07647 | 16.67511 | 2094 ft | 159 kts | 305° |
| 2026-04-22 20:23 | 48.08143 | 16.66082 | 1889 ft | 149 kts | 302° |
| 2026-04-22 20:23 | 48.08577 | 16.64750 | 1700 ft | 140 kts | 302° |
| 2026-04-22 20:23 | 48.08996 | 16.63457 | 1493 ft | 138 kts | 300° |
| 2026-04-22 20:23 | 48.09421 | 16.62145 | 1304 ft | 143 kts | 298° |
| 2026-04-22 20:24 | 48.09851 | 16.60813 | 1100 ft | 140 kts | 298° |
| 2026-04-22 20:24 | 48.10268 | 16.59526 | 922 ft | 136 kts | 297° |
| 2026-04-22 20:24 | 48.10683 | 16.58247 | 736 ft | 137 kts | 297° |
| 2026-04-22 20:24 | 48.11093 | 16.56982 | 622 ft | 130 kts | 297° |
| 2026-04-22 20:25 | 48.11417 | 16.55986 | 613 ft | 77 kts | 296° |
| 2026-04-22 20:25 | 48.11582 | 16.55492 | 613 ft | 42 kts | 302° |
| 2026-04-22 20:25 | 48.11695 | 16.55299 | 613 ft | 22 kts | 316° |
| 2026-04-22 20:25 | 48.11785 | 16.55166 | 610 ft | 12 kts | 325° |
| 2026-04-22 20:26 | 48.11863 | 16.55147 | 611 ft | 7 kts | 26° |
| 2026-04-22 20:26 | 48.11907 | 16.55179 | 608 ft | 7 kts | 26° |
| 2026-04-22 20:26 | 48.11940 | 16.55226 | 613 ft | 7 kts | 73° |
| 2026-04-22 20:26 | 48.11952 | 16.55300 | 620 ft | 8 kts | 55° |
| 2026-04-22 20:27 | 48.11997 | 16.55336 | 612 ft | 7 kts | 25° |
| 2026-04-22 20:27 | 48.12043 | 16.55369 | 615 ft | 7 kts | 25° |
| 2026-04-22 20:27 | 48.12081 | 16.55397 | 617 ft | 3 kts | 25° |
| 2026-04-22 20:27 | 48.12102 | 16.55410 | 614 ft | 3 kts | 15° |
| 2026-04-22 20:28 | 48.12119 | 16.55391 | 612 ft | 3 kts | 293° |